createdAt,value
2023-01-21T00:03:04.891Z,4.28
2023-01-21T00:08:06.270Z,4.73
2023-01-21T00:13:07.766Z,5.30
2023-01-21T00:18:09.294Z,5.13
2023-01-21T00:23:10.871Z,5.13
2023-01-21T00:28:13.019Z,5.10
2023-01-21T00:33:14.323Z,6.00
2023-01-21T00:38:15.597Z,5.65
2023-01-21T00:43:16.894Z,5.30
2023-01-21T00:48:18.176Z,5.80
2023-01-21T00:53:19.423Z,6.10
2023-01-21T00:58:20.655Z,6.10
2023-01-21T01:03:22.108Z,5.53
2023-01-21T01:08:23.434Z,5.85
2023-01-21T01:13:24.812Z,6.10
2023-01-21T01:18:27.286Z,5.63
2023-01-21T01:23:28.930Z,5.70
2023-01-21T01:28:31.773Z,6.90
2023-01-21T01:33:33.022Z,6.00
2023-01-21T01:38:34.988Z,5.93
2023-01-21T01:43:49.788Z,6.03
2023-01-21T01:49:00.852Z,5.97
2023-01-21T01:54:02.461Z,5.70
2023-01-21T01:59:03.831Z,6.22
2023-01-21T02:04:07.794Z,6.20
2023-01-21T02:09:09.059Z,6.80
2023-01-21T02:14:10.401Z,6.00
2023-01-21T02:19:17.477Z,6.70
2023-01-21T02:24:37.615Z,7.55
2023-01-21T02:29:47.267Z,6.43
2023-01-21T02:34:54.376Z,8.02
2023-01-21T02:40:15.053Z,8.33
2023-01-21T02:45:21.831Z,5.78
2023-01-21T02:50:30.223Z,7.38
2023-01-21T02:55:36.252Z,6.47
2023-01-21T03:00:52.731Z,5.88
2023-01-21T03:05:57.069Z,6.20
2023-01-21T03:11:11.880Z,5.32
2023-01-21T03:16:32.206Z,5.85
2023-01-21T03:21:34.328Z,5.97
2023-01-21T03:26:38.641Z,6.10
2023-01-21T03:31:40.703Z,6.10
2023-01-21T03:36:45.076Z,6.32
2023-01-21T03:41:46.496Z,6.50
2023-01-21T03:47:06.481Z,6.38
2023-01-21T03:52:08.701Z,6.00
2023-01-21T03:57:09.924Z,6.80
2023-01-21T04:02:11.589Z,6.50
2023-01-21T04:07:13.643Z,6.78
2023-01-21T04:12:15.031Z,6.15
2023-01-21T04:17:16.289Z,6.43
2023-01-21T04:22:18.117Z,6.03
2023-01-21T04:27:19.431Z,5.60
2023-01-21T04:32:20.740Z,5.82
2023-01-21T04:37:21.970Z,5.95
2023-01-21T04:42:23.249Z,6.03
2023-01-21T04:47:24.564Z,6.30
2023-01-21T04:52:25.797Z,6.20
2023-01-21T04:57:27.061Z,6.43
2023-01-21T05:02:28.740Z,6.60
2023-01-21T05:07:30.044Z,6.43
2023-01-21T05:12:31.315Z,6.87
2023-01-21T05:17:32.673Z,6.50
2023-01-21T05:22:33.912Z,7.45
2023-01-21T05:27:35.601Z,7.85
2023-01-21T05:32:36.956Z,8.35
2023-01-21T05:37:38.210Z,8.30
2023-01-21T05:42:39.556Z,10.05
2023-01-21T05:47:40.860Z,11.32
2023-01-21T05:52:42.141Z,12.02
2023-01-21T05:57:43.447Z,11.85
2023-01-21T06:02:44.692Z,13.50
2023-01-21T06:07:45.988Z,12.32
2023-01-21T06:12:49.963Z,12.30
2023-01-21T06:17:51.961Z,12.43
2023-01-21T06:22:53.299Z,12.27
2023-01-21T06:27:55.429Z,10.13
2023-01-21T06:32:56.775Z,10.60
2023-01-21T06:37:58.076Z,9.82
2023-01-21T06:42:59.469Z,9.15
2023-01-21T06:48:00.759Z,8.57
2023-01-21T06:53:02.036Z,10.30
2023-01-21T06:58:03.432Z,10.25
2023-01-21T07:03:04.748Z,7.85
2023-01-21T07:08:06.058Z,9.52
2023-01-21T07:13:07.345Z,7.72
2023-01-21T07:18:08.625Z,9.13
2023-01-21T07:23:09.962Z,6.97
2023-01-21T07:28:11.210Z,6.82
2023-01-21T07:33:12.677Z,7.65
2023-01-21T07:38:13.981Z,8.43
2023-01-21T07:43:15.206Z,6.87
2023-01-21T07:48:16.628Z,7.22
2023-01-21T07:53:17.891Z,6.90
2023-01-21T07:58:19.148Z,7.32
2023-01-21T08:03:21.881Z,7.75
2023-01-21T08:08:23.152Z,8.10
2023-01-21T08:13:24.782Z,8.15
2023-01-21T08:18:26.090Z,7.63
2023-01-21T08:23:27.388Z,6.75
2023-01-21T08:28:28.680Z,8.40
2023-01-21T08:33:30.368Z,10.10
2023-01-21T08:38:32.056Z,9.38
2023-01-21T08:43:33.326Z,7.68
2023-01-21T08:48:34.544Z,6.68
2023-01-21T08:53:36.023Z,7.30
2023-01-21T08:58:37.396Z,8.17
2023-01-21T09:03:38.784Z,7.60
2023-01-21T09:08:40.481Z,7.97
2023-01-21T09:13:43.274Z,8.25
2023-01-21T09:18:44.696Z,7.40
2023-01-21T09:23:45.955Z,9.00
2023-01-21T09:28:51.464Z,8.57
2023-01-21T09:33:54.076Z,7.95
2023-01-21T09:38:55.351Z,8.20
2023-01-21T09:44:14.870Z,7.22
2023-01-21T09:49:22.434Z,6.77
2023-01-21T09:54:33.958Z,7.72
2023-01-21T09:59:44.525Z,7.82
2023-01-21T10:04:48.088Z,12.52
2023-01-21T10:09:52.241Z,7.63
2023-01-21T10:15:00.913Z,9.43
2023-01-21T10:20:02.147Z,8.65
2023-01-21T10:25:14.067Z,8.00
2023-01-21T10:30:21.453Z,8.18
2023-01-21T10:35:43.025Z,8.40
2023-01-21T10:41:16.656Z,8.37
2023-01-21T10:46:40.982Z,9.18
2023-01-21T10:51:48.420Z,9.80
2023-01-21T10:57:00.379Z,8.65
2023-01-21T11:02:11.233Z,9.20
2023-01-21T11:07:13.551Z,9.07
2023-01-21T11:12:19.191Z,9.80
2023-01-21T11:17:29.419Z,10.30
2023-01-21T11:22:32.253Z,12.93
2023-01-21T11:27:39.331Z,11.07
2023-01-21T11:32:40.624Z,10.43
2023-01-21T11:37:44.577Z,10.40
2023-01-21T11:42:47.429Z,9.15
2023-01-21T11:47:49.794Z,9.63
2023-01-21T11:53:06.451Z,11.18
2023-01-21T11:58:34.178Z,8.90
2023-01-21T12:03:44.983Z,9.38
2023-01-21T12:08:49.084Z,9.95
2023-01-21T12:13:53.548Z,9.18
2023-01-21T12:19:04.125Z,10.55
2023-01-21T12:24:28.885Z,10.63
2023-01-21T12:29:32.910Z,10.63
2023-01-21T12:34:34.233Z,9.68
2023-01-21T12:39:40.171Z,10.40
2023-01-21T12:44:41.380Z,10.27
2023-01-21T12:49:52.972Z,12.67
2023-01-21T12:55:13.192Z,10.43
2023-01-21T13:00:18.623Z,13.65
2023-01-21T13:05:38.778Z,10.57
2023-01-21T13:10:42.096Z,10.68
2023-01-21T13:15:44.822Z,10.27
2023-01-21T13:20:50.184Z,10.60
2023-01-21T13:26:10.072Z,11.88
2023-01-21T13:31:20.676Z,12.57
2023-01-21T13:36:26.611Z,11.65
2023-01-21T13:41:37.375Z,10.87
2023-01-21T13:46:54.987Z,9.98
2023-01-21T13:51:59.273Z,10.85
2023-01-21T13:57:00.570Z,10.23
2023-01-21T14:02:23.088Z,10.68
2023-01-21T14:07:28.208Z,13.00
2023-01-21T14:12:39.730Z,12.75
2023-01-21T14:17:54.323Z,12.38
2023-01-21T14:23:09.399Z,12.05
2023-01-21T14:28:20.614Z,10.90
2023-01-21T14:33:23.618Z,10.90
2023-01-21T14:38:44.691Z,10.50
2023-01-21T14:43:47.475Z,11.63
2023-01-21T14:49:00.349Z,10.82
2023-01-21T14:54:04.162Z,12.10
2023-01-21T14:59:05.459Z,17.40
2023-01-21T15:04:30.086Z,11.85
2023-01-21T15:09:32.799Z,10.43
2023-01-21T15:14:35.583Z,10.05
2023-01-21T15:19:36.877Z,9.77
2023-01-21T15:24:39.824Z,10.00
2023-01-21T15:29:41.073Z,9.73
2023-01-21T15:34:44.659Z,9.38
2023-01-21T15:39:47.939Z,10.80
2023-01-21T15:44:55.271Z,11.82
2023-01-21T15:49:56.588Z,11.20
2023-01-21T15:55:16.742Z,9.55
2023-01-21T16:00:32.701Z,10.35
2023-01-21T16:05:38.899Z,9.00
2023-01-21T16:10:58.637Z,10.32
2023-01-21T16:16:15.463Z,9.00
2023-01-21T16:21:24.596Z,9.85
2023-01-21T16:26:55.311Z,9.85
2023-01-21T16:31:59.431Z,7.93
2023-01-21T16:37:04.867Z,10.07
2023-01-21T16:42:06.784Z,9.27
2023-01-21T16:47:17.949Z,8.98
2023-01-21T16:52:20.089Z,9.02
2023-01-21T16:57:25.912Z,8.80
2023-01-21T17:02:33.878Z,10.43
2023-01-21T17:07:38.915Z,8.87
2023-01-21T17:12:40.447Z,9.10
2023-01-21T17:17:41.763Z,10.02
2023-01-21T17:22:44.167Z,8.63
2023-01-21T17:27:45.734Z,9.60
2023-01-21T17:32:57.584Z,9.83
2023-01-21T17:37:59.925Z,10.00
2023-01-21T17:43:09.485Z,10.13
2023-01-21T17:48:20.540Z,9.13
2023-01-21T17:53:25.100Z,9.30
2023-01-21T17:58:32.418Z,7.77
2023-01-21T18:03:33.722Z,8.27
2023-01-21T18:08:35.031Z,8.65
2023-01-21T18:13:36.288Z,9.18
2023-01-21T18:18:38.105Z,7.93
2023-01-21T18:23:39.424Z,8.47
2023-01-21T18:28:40.684Z,8.25
2023-01-21T18:33:41.940Z,8.50
2023-01-21T18:38:43.228Z,9.07
2023-01-21T18:43:44.488Z,11.45
2023-01-21T18:48:45.761Z,8.27
2023-01-21T18:53:47.131Z,9.02
2023-01-21T18:58:48.426Z,8.07
2023-01-21T19:03:50.961Z,8.45
2023-01-21T19:08:52.465Z,8.90
2023-01-21T19:13:53.853Z,9.87
2023-01-21T19:18:55.660Z,9.00
2023-01-21T19:23:56.926Z,10.27
2023-01-21T19:28:58.156Z,9.48
2023-01-21T19:33:59.471Z,13.77
2023-01-21T19:39:01.480Z,13.90
2023-01-21T19:44:02.785Z,10.18
2023-01-21T19:49:11.232Z,9.52
2023-01-21T19:54:12.551Z,9.35
2023-01-21T19:59:14.519Z,9.38
2023-01-21T20:04:15.929Z,9.90
2023-01-21T20:09:18.933Z,8.55
2023-01-21T20:14:20.237Z,8.57
2023-01-21T20:19:22.730Z,7.72
2023-01-21T20:24:24.004Z,8.55
2023-01-21T20:29:26.907Z,8.70
2023-01-21T20:34:31.282Z,9.57
2023-01-21T20:39:32.560Z,9.27
2023-01-21T20:44:33.835Z,8.85
2023-01-21T20:49:35.147Z,10.07
2023-01-21T20:54:36.376Z,9.93
2023-01-21T20:59:37.658Z,9.68
2023-01-21T21:04:38.893Z,10.95
2023-01-21T21:09:40.156Z,10.25
2023-01-21T21:14:41.431Z,9.65
2023-01-21T21:19:42.708Z,10.20
2023-01-21T21:24:43.987Z,10.35
2023-01-21T21:29:45.389Z,10.77
2023-01-21T21:34:46.672Z,10.02
2023-01-21T21:39:47.931Z,9.52
2023-01-21T21:44:49.216Z,10.70
2023-01-21T21:49:50.500Z,9.88
2023-01-21T21:54:51.817Z,9.48
2023-01-21T21:59:53.138Z,9.68
2023-01-21T22:04:54.937Z,10.15
2023-01-21T22:09:56.218Z,10.10
2023-01-21T22:14:57.512Z,10.15
2023-01-21T22:19:59.511Z,9.50
2023-01-21T22:25:00.805Z,8.57
2023-01-21T22:30:02.131Z,8.70
2023-01-21T22:35:03.640Z,9.93
2023-01-21T22:40:05.236Z,7.32
2023-01-21T22:45:06.834Z,7.20
2023-01-21T22:50:08.697Z,17.23
2023-01-21T22:55:10.026Z,8.88
2023-01-21T23:00:14.212Z,8.57
2023-01-21T23:05:15.702Z,7.82
2023-01-21T23:10:17.648Z,7.25
2023-01-21T23:15:19.386Z,6.75
2023-01-21T23:20:20.795Z,7.57
2023-01-21T23:25:22.380Z,7.00
2023-01-21T23:30:23.648Z,6.72
2023-01-21T23:35:24.886Z,8.15
2023-01-21T23:40:26.125Z,8.20
2023-01-21T23:45:27.427Z,8.07
2023-01-21T23:50:28.720Z,7.23
2023-01-21T23:55:29.985Z,6.32
